sensor_id;sensor_type;location;lat;lon;timestamp;pressure;altitude;pressure_sealevel;temperature;humidity
3968;BME280;9221;42.646;23.380;2022-12-05T00:00:26;95489.66;;;6.52;94.44
3968;BME280;9221;42.646;23.380;2022-12-05T00:02:51;95414.69;;;6.24;93.87
3968;BME280;9221;42.646;23.380;2022-12-05T00:05:17;95430.44;;;6.50;93.82
3968;BME280;9221;42.646;23.380;2022-12-05T00:07:42;95446.75;;;6.40;93.76
3968;BME280;9221;42.646;23.380;2022-12-05T00:10:08;95413.09;;;6.21;93.03
3968;BME280;9221;42.646;23.380;2022-12-05T00:12:33;95452.94;;;6.39;93.13
3968;BME280;9221;42.646;23.380;2022-12-05T00:14:59;95467.59;;;6.29;93.63
3968;BME280;9221;42.646;23.380;2022-12-05T00:17:24;95437.44;;;6.36;93.49
3968;BME280;9221;42.646;23.380;2022-12-05T00:19:50;95482.06;;;6.48;93.25
3968;BME280;9221;42.646;23.380;2022-12-05T00:22:15;95491.31;;;6.40;93.13
3968;BME280;9221;42.646;23.380;2022-12-05T00:24:41;95426.31;;;6.20;93.40
3968;BME280;9221;42.646;23.380;2022-12-05T00:27:06;95408.69;;;6.09;93.49
3968;BME280;9221;42.646;23.380;2022-12-05T00:29:32;95408.50;;;6.25;93.16
3968;BME280;9221;42.646;23.380;2022-12-05T00:31:57;95488.69;;;6.53;92.50
3968;BME280;9221;42.646;23.380;2022-12-05T00:34:23;95454.94;;;6.49;93.20
3968;BME280;9221;42.646;23.380;2022-12-05T00:36:49;95489.81;;;6.23;93.45
3968;BME280;9221;42.646;23.380;2022-12-05T00:39:15;95452.31;;;6.36;93.54
3968;BME280;9221;42.646;23.380;2022-12-05T00:41:42;95449.13;;;6.18;93.42
3968;BME280;9221;42.646;23.380;2022-12-05T00:44:09;95441.59;;;6.13;93.69
3968;BME280;9221;42.646;23.380;2022-12-05T00:46:35;95499.59;;;6.34;93.56
3968;BME280;9221;42.646;23.380;2022-12-05T00:49:03;95525.47;;;6.39;94.02
3968;BME280;9221;42.646;23.380;2022-12-05T00:51:40;95457.56;;;6.36;93.48
3968;BME280;9221;42.646;23.380;2022-12-05T00:54:10;95407.78;;;5.96;93.83
3968;BME280;9221;42.646;23.380;2022-12-05T00:56:36;95467.59;;;6.29;93.62
3968;BME280;9221;42.646;23.380;2022-12-05T00:59:02;95451.69;;;6.32;93.53
3968;BME280;9221;42.646;23.380;2022-12-05T01:01:38;95439.41;;;6.20;93.88
3968;BME280;9221;42.646;23.380;2022-12-05T01:04:07;95411.00;;;6.01;93.76
3968;BME280;9221;42.646;23.380;2022-12-05T01:06:34;95435.00;;;6.20;94.00
3968;BME280;9221;42.646;23.380;2022-12-05T01:09:00;95514.94;;;6.26;93.79
3968;BME280;9221;42.646;23.380;2022-12-05T01:11:26;95440.34;;;6.19;94.69
3968;BME280;9221;42.646;23.380;2022-12-05T01:13:53;95401.31;;;5.88;94.57
3968;BME280;9221;42.646;23.380;2022-12-05T01:18:49;95469.13;;;5.79;96.52
3968;BME280;9221;42.646;23.380;2022-12-05T01:21:15;95472.19;;;5.85;96.60
3968;BME280;9221;42.646;23.380;2022-12-05T01:23:40;95456.47;;;5.58;96.69
3968;BME280;9221;42.646;23.380;2022-12-05T01:26:08;95439.91;;;5.85;97.12
3968;BME280;9221;42.646;23.380;2022-12-05T01:28:34;95422.84;;;5.52;98.05
3968;BME280;9221;42.646;23.380;2022-12-05T01:31:25;95387.13;;;5.38;97.86
3968;BME280;9221;42.646;23.380;2022-12-05T01:33:49;95429.63;;;5.69;98.24
3968;BME280;9221;42.646;23.380;2022-12-05T01:36:15;95462.31;;;5.89;97.44
3968;BME280;9221;42.646;23.380;2022-12-05T01:38:41;95425.66;;;6.03;97.92
3968;BME280;9221;42.646;23.380;2022-12-05T01:41:12;95381.78;;;5.67;96.72
3968;BME280;9221;42.646;23.380;2022-12-05T01:44:06;95416.44;;;5.70;97.42
3968;BME280;9221;42.646;23.380;2022-12-05T01:46:37;95371.41;;;5.65;97.61
3968;BME280;9221;42.646;23.380;2022-12-05T01:49:12;95385.03;;;5.70;97.28
3968;BME280;9221;42.646;23.380;2022-12-05T01:51:45;95371.53;;;5.76;97.20
3968;BME280;9221;42.646;23.380;2022-12-05T01:54:12;95365.38;;;5.78;97.17
3968;BME280;9221;42.646;23.380;2022-12-05T01:56:40;95369.34;;;5.83;96.48
3968;BME280;9221;42.646;23.380;2022-12-05T01:59:08;95418.56;;;6.18;96.18
3968;BME280;9221;42.646;23.380;2022-12-05T02:01:35;95443.44;;;5.98;96.15
3968;BME280;9221;42.646;23.380;2022-12-05T02:04:02;95413.41;;;5.76;96.78
3968;BME280;9221;42.646;23.380;2022-12-05T02:06:28;95401.38;;;5.47;98.28
3968;BME280;9221;42.646;23.380;2022-12-05T02:08:54;95411.69;;;5.63;98.66
3968;BME280;9221;42.646;23.380;2022-12-05T02:11:21;95386.28;;;5.37;98.17
3968;BME280;9221;42.646;23.380;2022-12-05T02:27:15;95425.66;;;6.03;98.01
3968;BME280;9221;42.646;23.380;2022-12-05T02:32:58;95418.75;;;6.02;97.27
3968;BME280;9221;42.646;23.380;2022-12-05T02:35:33;95372.91;;;5.82;97.66
3968;BME280;9221;42.646;23.380;2022-12-05T02:43:40;95424.28;;;5.98;97.33
3968;BME280;9221;42.646;23.380;2022-12-05T02:46:20;95370.81;;;5.74;96.70
3968;BME280;9221;42.646;23.380;2022-12-05T02:48:46;95381.88;;;6.05;97.57
3968;BME280;9221;42.646;23.380;2022-12-05T02:51:16;95466.69;;;6.30;97.34
3968;BME280;9221;42.646;23.380;2022-12-05T02:53:44;95434.28;;;6.31;96.54
3968;BME280;9221;42.646;23.380;2022-12-05T02:56:11;95430.72;;;6.32;96.01
3968;BME280;9221;42.646;23.380;2022-12-05T02:58:47;95347.09;;;6.16;95.75
3968;BME280;9221;42.646;23.380;2022-12-05T03:01:15;95417.53;;;6.47;95.86
3968;BME280;9221;42.646;23.380;2022-12-05T03:03:42;95341.91;;;5.89;96.28
3968;BME280;9221;42.646;23.380;2022-12-05T03:06:13;95349.78;;;5.89;96.05
3968;BME280;9221;42.646;23.380;2022-12-05T03:09:02;95385.84;;;5.98;96.76
3968;BME280;9221;42.646;23.380;2022-12-05T03:11:33;95388.19;;;6.16;96.74
3968;BME280;9221;42.646;23.380;2022-12-05T03:14:02;95358.41;;;6.04;96.61
3968;BME280;9221;42.646;23.380;2022-12-05T03:16:36;95393.84;;;6.35;96.46
3968;BME280;9221;42.646;23.380;2022-12-05T03:19:11;95409.56;;;6.35;95.83
3968;BME280;9221;42.646;23.380;2022-12-05T03:21:45;95398.25;;;6.48;95.52
3968;BME280;9221;42.646;23.380;2022-12-05T03:24:14;95396.47;;;6.35;95.01
3968;BME280;9221;42.646;23.380;2022-12-05T03:27:42;95415.44;;;6.52;95.41
3968;BME280;9221;42.646;23.380;2022-12-05T03:35:52;95413.56;;;6.54;94.70
3968;BME280;9221;42.646;23.380;2022-12-05T03:41:34;95391.34;;;6.47;94.25
3968;BME280;9221;42.646;23.380;2022-12-05T03:44:15;95451.91;;;6.55;93.96
3968;BME280;9221;42.646;23.380;2022-12-05T03:46:49;95404.03;;;6.40;94.75
3968;BME280;9221;42.646;23.380;2022-12-05T03:54:31;95406.56;;;6.01;95.39
3968;BME280;9221;42.646;23.380;2022-12-05T03:57:06;95462.75;;;6.10;96.01
3968;BME280;9221;42.646;23.380;2022-12-05T03:59:54;95372.19;;;5.93;95.93
3968;BME280;9221;42.646;23.380;2022-12-05T04:02:29;95402.09;;;6.03;96.08
3968;BME280;9221;42.646;23.380;2022-12-05T04:05:03;95409.19;;;6.01;96.29
3968;BME280;9221;42.646;23.380;2022-12-05T04:07:33;95395.41;;;5.72;96.48
3968;BME280;9221;42.646;23.380;2022-12-05T04:10:06;95440.06;;;5.96;96.80
3968;BME280;9221;42.646;23.380;2022-12-05T04:12:34;95373.00;;;5.68;97.39
3968;BME280;9221;42.646;23.380;2022-12-05T04:15:11;95415.88;;;5.65;98.03
3968;BME280;9221;42.646;23.380;2022-12-05T04:17:46;95399.59;;;5.74;98.25
3968;BME280;9221;42.646;23.380;2022-12-05T04:20:36;95420.63;;;6.00;97.81
3968;BME280;9221;42.646;23.380;2022-12-05T04:23:22;95426.59;;;6.02;97.02
3968;BME280;9221;42.646;23.380;2022-12-05T04:26:01;95388.06;;;6.04;96.86
3968;BME280;9221;42.646;23.380;2022-12-05T04:31:00;95387.53;;;6.12;96.60
3968;BME280;9221;42.646;23.380;2022-12-05T04:34:02;95394.34;;;6.15;96.57
3968;BME280;9221;42.646;23.380;2022-12-05T04:36:41;95378.34;;;6.19;96.15
3968;BME280;9221;42.646;23.380;2022-12-05T04:39:15;95390.78;;;6.29;96.09
3968;BME280;9221;42.646;23.380;2022-12-05T04:41:54;95384.56;;;5.91;96.20
3968;BME280;9221;42.646;23.380;2022-12-05T04:44:28;95372.34;;;5.64;96.58
3968;BME280;9221;42.646;23.380;2022-12-05T04:46:56;95391.22;;;5.82;97.53
3968;BME280;9221;42.646;23.380;2022-12-05T04:49:25;95408.84;;;5.93;97.92
3968;BME280;9221;42.646;23.380;2022-12-05T04:51:54;95370.31;;;5.55;98.42
3968;BME280;9221;42.646;23.380;2022-12-05T04:54:28;95366.09;;;5.39;99.18
3968;BME280;9221;42.646;23.380;2022-12-05T04:57:01;95390.72;;;5.50;99.10
3968;BME280;9221;42.646;23.380;2022-12-05T04:59:29;95454.41;;;5.63;100.00
3968;BME280;9221;42.646;23.380;2022-12-05T05:01:57;95361.78;;;5.38;99.70
3968;BME280;9221;42.646;23.380;2022-12-05T05:04:33;95403.00;;;5.62;100.00
3968;BME280;9221;42.646;23.380;2022-12-05T05:07:04;95415.66;;;5.55;99.70
3968;BME280;9221;42.646;23.380;2022-12-05T05:09:29;95374.50;;;5.45;100.00
3968;BME280;9221;42.646;23.380;2022-12-05T05:11:55;95411.94;;;5.72;99.84
3968;BME280;9221;42.646;23.380;2022-12-05T05:14:20;95457.75;;;5.65;99.25
3968;BME280;9221;42.646;23.380;2022-12-05T05:16:46;95450.00;;;5.64;99.86
3968;BME280;9221;42.646;23.380;2022-12-05T05:19:12;95427.88;;;5.55;99.59
3968;BME280;9221;42.646;23.380;2022-12-05T05:21:39;95380.84;;;5.40;99.63
3968;BME280;9221;42.646;23.380;2022-12-05T05:24:06;95412.25;;;5.40;99.52
3968;BME280;9221;42.646;23.380;2022-12-05T05:26:39;95424.66;;;5.64;99.52
3968;BME280;9221;42.646;23.380;2022-12-05T05:29:06;95374.28;;;5.48;99.48
3968;BME280;9221;42.646;23.380;2022-12-05T05:31:31;95382.22;;;5.73;99.27
3968;BME280;9221;42.646;23.380;2022-12-05T05:33:58;95429.16;;;6.17;98.27
3968;BME280;9221;42.646;23.380;2022-12-05T05:36:25;95415.63;;;6.23;98.04
3968;BME280;9221;42.646;23.380;2022-12-05T05:38:53;95469.09;;;6.33;97.11
3968;BME280;9221;42.646;23.380;2022-12-05T05:41:21;95427.59;;;6.40;96.97
3968;BME280;9221;42.646;23.380;2022-12-05T05:43:48;95424.34;;;6.36;95.98
3968;BME280;9221;42.646;23.380;2022-12-05T05:46:19;95352.72;;;5.84;95.84
3968;BME280;9221;42.646;23.380;2022-12-05T05:48:45;95391.19;;;6.09;95.95
3968;BME280;9221;42.646;23.380;2022-12-05T05:51:12;95432.41;;;6.46;95.86
3968;BME280;9221;42.646;23.380;2022-12-05T05:53:38;95491.72;;;6.47;95.39
3968;BME280;9221;42.646;23.380;2022-12-05T05:56:05;95438.91;;;6.53;95.56
3968;BME280;9221;42.646;23.380;2022-12-05T05:58:31;95439.31;;;6.60;94.69
3968;BME280;9221;42.646;23.380;2022-12-05T06:01:15;95494.06;;;6.65;94.81
3968;BME280;9221;42.646;23.380;2022-12-05T06:03:41;95446.78;;;6.66;94.94
3968;BME280;9221;42.646;23.380;2022-12-05T06:06:09;95477.47;;;6.64;95.11
3968;BME280;9221;42.646;23.380;2022-12-05T06:08:36;95413.47;;;6.42;94.51
3968;BME280;9221;42.646;23.380;2022-12-05T06:11:10;95458.19;;;6.65;95.01
3968;BME280;9221;42.646;23.380;2022-12-05T06:13:37;95500.97;;;6.53;94.23
3968;BME280;9221;42.646;23.380;2022-12-05T06:16:07;95423.81;;;6.31;94.57
3968;BME280;9221;42.646;23.380;2022-12-05T06:18:33;95475.19;;;6.47;94.76
3968;BME280;9221;42.646;23.380;2022-12-05T06:20:59;95418.75;;;6.02;95.30
3968;BME280;9221;42.646;23.380;2022-12-05T06:23:25;95471.69;;;6.33;95.30
3968;BME280;9221;42.646;23.380;2022-12-05T06:25:53;95495.50;;;6.43;95.54
3968;BME280;9221;42.646;23.380;2022-12-05T06:28:20;95507.63;;;6.31;95.93
3968;BME280;9221;42.646;23.380;2022-12-05T06:30:46;95423.75;;;6.05;95.73
3968;BME280;9221;42.646;23.380;2022-12-05T06:33:12;95456.50;;;6.25;96.12
3968;BME280;9221;42.646;23.380;2022-12-05T06:35:38;95414.50;;;5.87;95.97
3968;BME280;9221;42.646;23.380;2022-12-05T06:38:03;95455.03;;;5.94;96.73
3968;BME280;9221;42.646;23.380;2022-12-05T06:40:29;95424.28;;;5.70;97.71
3968;BME280;9221;42.646;23.380;2022-12-05T06:42:55;95429.09;;;5.76;98.19
3968;BME280;9221;42.646;23.380;2022-12-05T06:45:20;95555.25;;;5.96;97.81
3968;BME280;9221;42.646;23.380;2022-12-05T06:47:46;95427.03;;;5.82;98.00
3968;BME280;9221;42.646;23.380;2022-12-05T06:50:11;95428.13;;;5.92;98.01
3968;BME280;9221;42.646;23.380;2022-12-05T06:52:36;95467.13;;;6.09;97.71
3968;BME280;9221;42.646;23.380;2022-12-05T06:55:02;95441.38;;;6.03;97.57
3968;BME280;9221;42.646;23.380;2022-12-05T06:57:28;95452.06;;;6.26;96.90
3968;BME280;9221;42.646;23.380;2022-12-05T06:59:53;95522.75;;;6.40;96.57
3968;BME280;9221;42.646;23.380;2022-12-05T07:02:39;95507.66;;;6.57;96.36
3968;BME280;9221;42.646;23.380;2022-12-05T07:05:06;95492.69;;;6.72;95.51
3968;BME280;9221;42.646;23.380;2022-12-05T07:07:32;95402.22;;;6.40;95.02
3968;BME280;9221;42.646;23.380;2022-12-05T07:09:57;95510.41;;;6.94;94.68
3968;BME280;9221;42.646;23.380;2022-12-05T07:12:22;95463.84;;;6.98;94.59
3968;BME280;9221;42.646;23.380;2022-12-05T07:14:48;95476.44;;;7.05;94.48
3968;BME280;9221;42.646;23.380;2022-12-05T07:17:13;95470.13;;;7.21;93.75
3968;BME280;9221;42.646;23.380;2022-12-05T07:19:39;95414.78;;;6.87;92.94
3968;BME280;9221;42.646;23.380;2022-12-05T07:22:04;95425.03;;;6.90;93.18
3968;BME280;9221;42.646;23.380;2022-12-05T07:24:30;95429.34;;;6.91;92.32
3968;BME280;9221;42.646;23.380;2022-12-05T07:26:55;95490.91;;;6.98;92.79
3968;BME280;9221;42.646;23.380;2022-12-05T07:29:20;95368.25;;;6.26;92.81
3968;BME280;9221;42.646;23.380;2022-12-05T07:31:46;95434.91;;;6.48;93.52
3968;BME280;9221;42.646;23.380;2022-12-05T07:34:11;95478.75;;;6.71;93.72
3968;BME280;9221;42.646;23.380;2022-12-05T07:36:37;95512.50;;;6.89;93.86
3968;BME280;9221;42.646;23.380;2022-12-05T07:39:02;95539.22;;;6.68;93.66
3968;BME280;9221;42.646;23.380;2022-12-05T07:41:30;95495.53;;;6.82;93.98
3968;BME280;9221;42.646;23.380;2022-12-05T07:43:57;95477.50;;;6.77;93.98
3968;BME280;9221;42.646;23.380;2022-12-05T07:46:25;95434.91;;;6.48;94.07
3968;BME280;9221;42.646;23.380;2022-12-05T07:48:51;95448.78;;;6.50;93.76
3968;BME280;9221;42.646;23.380;2022-12-05T07:51:17;95456.69;;;6.22;94.53
3968;BME280;9221;42.646;23.380;2022-12-05T07:53:43;95437.84;;;6.56;94.41
3968;BME280;9221;42.646;23.380;2022-12-05T07:56:10;95495.53;;;6.94;94.21
3968;BME280;9221;42.646;23.380;2022-12-05T07:58:38;95495.66;;;6.93;93.23
3968;BME280;9221;42.646;23.380;2022-12-05T08:01:07;95497.53;;;6.91;93.31
3968;BME280;9221;42.646;23.380;2022-12-05T08:03:34;95449.72;;;6.74;93.45
3968;BME280;9221;42.646;23.380;2022-12-05T08:06:04;95593.59;;;6.92;93.72
3968;BME280;9221;42.646;23.380;2022-12-05T08:08:29;95529.31;;;6.99;93.35
3968;BME280;9221;42.646;23.380;2022-12-05T08:10:55;95459.25;;;6.75;92.56
3968;BME280;9221;42.646;23.380;2022-12-05T08:13:20;95448.97;;;6.72;92.67
3968;BME280;9221;42.646;23.380;2022-12-05T08:15:46;95439.97;;;6.64;92.74
3968;BME280;9221;42.646;23.380;2022-12-05T08:18:11;95528.88;;;6.80;93.11
3968;BME280;9221;42.646;23.380;2022-12-05T08:20:36;95522.50;;;7.09;92.75
3968;BME280;9221;42.646;23.380;2022-12-05T08:23:02;95459.03;;;6.78;91.96
3968;BME280;9221;42.646;23.380;2022-12-05T08:25:27;95485.25;;;7.04;92.67
3968;BME280;9221;42.646;23.380;2022-12-05T08:27:53;95462.81;;;6.87;92.45
3968;BME280;9221;42.646;23.380;2022-12-05T08:30:18;95532.22;;;7.33;91.93
3968;BME280;9221;42.646;23.380;2022-12-05T08:32:44;95440.84;;;7.14;91.48
3968;BME280;9221;42.646;23.380;2022-12-05T08:35:09;95534.22;;;7.42;90.15
3968;BME280;9221;42.646;23.380;2022-12-05T08:37:34;95449.22;;;7.32;90.17
3968;BME280;9221;42.646;23.380;2022-12-05T08:40:00;95485.66;;;7.61;89.64
3968;BME280;9221;42.646;23.380;2022-12-05T08:42:26;95488.50;;;7.58;90.02
3968;BME280;9221;42.646;23.380;2022-12-05T08:44:51;95476.59;;;7.41;89.00
3968;BME280;9221;42.646;23.380;2022-12-05T08:47:17;95483.66;;;7.65;88.68
3968;BME280;9221;42.646;23.380;2022-12-05T08:49:42;95506.25;;;7.54;88.26
3968;BME280;9221;42.646;23.380;2022-12-05T08:52:07;95516.13;;;7.51;88.27
3968;BME280;9221;42.646;23.380;2022-12-05T08:54:33;95506.13;;;7.56;88.23
3968;BME280;9221;42.646;23.380;2022-12-05T08:56:58;95505.47;;;7.65;88.48
3968;BME280;9221;42.646;23.380;2022-12-05T08:59:24;95499.59;;;7.74;88.14
3968;BME280;9221;42.646;23.380;2022-12-05T09:01:49;95441.78;;;7.63;88.08
3968;BME280;9221;42.646;23.380;2022-12-05T09:04:15;95458.78;;;7.82;88.44
3968;BME280;9221;42.646;23.380;2022-12-05T09:06:41;95454.25;;;7.72;87.88
3968;BME280;9221;42.646;23.380;2022-12-05T09:09:09;95477.72;;;7.98;87.95
3968;BME280;9221;42.646;23.380;2022-12-05T09:11:38;95518.38;;;8.05;87.67
3968;BME280;9221;42.646;23.380;2022-12-05T09:14:05;95480.59;;;7.95;87.90
3968;BME280;9221;42.646;23.380;2022-12-05T09:16:36;95467.56;;;7.93;87.67
3968;BME280;9221;42.646;23.380;2022-12-05T09:19:02;95429.19;;;7.79;87.72
3968;BME280;9221;42.646;23.380;2022-12-05T09:21:29;95421.28;;;7.68;87.31
3968;BME280;9221;42.646;23.380;2022-12-05T09:23:57;95477.56;;;8.12;87.43
3968;BME280;9221;42.646;23.380;2022-12-05T09:26:24;95490.97;;;8.21;86.96
3968;BME280;9221;42.646;23.380;2022-12-05T09:28:50;95473.75;;;8.17;86.71
3968;BME280;9221;42.646;23.380;2022-12-05T09:31:21;95425.72;;;8.03;86.06
3968;BME280;9221;42.646;23.380;2022-12-05T09:33:48;95443.81;;;8.19;85.58
3968;BME280;9221;42.646;23.380;2022-12-05T09:36:18;95422.84;;;8.06;85.31
3968;BME280;9221;42.646;23.380;2022-12-05T09:38:45;95427.38;;;8.04;85.39
3968;BME280;9221;42.646;23.380;2022-12-05T09:47:00;95460.78;;;8.02;85.08
3968;BME280;9221;42.646;23.380;2022-12-05T09:49:27;95453.53;;;7.82;85.17
3968;BME280;9221;42.646;23.380;2022-12-05T09:51:55;95524.28;;;7.96;85.52
3968;BME280;9221;42.646;23.380;2022-12-05T09:54:22;95297.00;;;7.21;85.66
3968;BME280;9221;42.646;23.380;2022-12-05T09:56:50;95447.63;;;7.91;84.94
3968;BME280;9221;42.646;23.380;2022-12-05T09:59:18;95451.31;;;8.12;85.43
3968;BME280;9221;42.646;23.380;2022-12-05T10:09:33;95432.72;;;8.27;85.10
3968;BME280;9221;42.646;23.380;2022-12-05T10:12:23;95440.63;;;8.38;84.66
3968;BME280;9221;42.646;23.380;2022-12-05T10:14:58;95433.97;;;8.45;84.42
3968;BME280;9221;42.646;23.380;2022-12-05T10:17:32;95463.34;;;8.39;84.08
3968;BME280;9221;42.646;23.380;2022-12-05T10:20:03;95451.56;;;8.21;83.79
3968;BME280;9221;42.646;23.380;2022-12-05T10:22:42;95345.75;;;7.48;85.29
3968;BME280;9221;42.646;23.380;2022-12-05T10:25:12;95465.72;;;7.83;86.26
3968;BME280;9221;42.646;23.380;2022-12-05T10:27:44;95419.19;;;7.60;85.95
3968;BME280;9221;42.646;23.380;2022-12-05T10:32:59;95464.94;;;7.69;87.82
3968;BME280;9221;42.646;23.380;2022-12-05T10:35:35;95422.44;;;7.64;87.51
3968;BME280;9221;42.646;23.380;2022-12-05T10:38:06;95444.81;;;7.57;87.55
3968;BME280;9221;42.646;23.380;2022-12-05T10:43:29;95380.72;;;7.72;87.31
3968;BME280;9221;42.646;23.380;2022-12-05T10:45:56;95397.22;;;7.86;86.79
3968;BME280;9221;42.646;23.380;2022-12-05T10:48:22;95314.69;;;7.30;87.29
3968;BME280;9221;42.646;23.380;2022-12-05T10:50:53;95410.22;;;8.11;87.19
3968;BME280;9221;42.646;23.380;2022-12-05T10:53:48;95410.03;;;8.26;86.81
3968;BME280;9221;42.646;23.380;2022-12-05T10:56:46;95410.34;;;8.10;86.78
3968;BME280;9221;42.646;23.380;2022-12-05T10:59:14;95406.63;;;8.01;86.98
3968;BME280;9221;42.646;23.380;2022-12-05T11:01:48;95399.25;;;8.18;86.71
3968;BME280;9221;42.646;23.380;2022-12-05T11:04:26;95443.91;;;8.18;87.00
3968;BME280;9221;42.646;23.380;2022-12-05T11:07:03;95486.66;;;8.20;86.10
3968;BME280;9221;42.646;23.380;2022-12-05T11:09:35;95360.63;;;7.95;86.10
3968;BME280;9221;42.646;23.380;2022-12-05T11:12:15;95403.63;;;8.06;86.46
3968;BME280;9221;42.646;23.380;2022-12-05T11:15:21;95398.66;;;7.90;86.75
3968;BME280;9221;42.646;23.380;2022-12-05T11:17:49;95486.31;;;7.89;87.45
3968;BME280;9221;42.646;23.380;2022-12-05T11:20:40;95412.44;;;7.93;87.22
3968;BME280;9221;42.646;23.380;2022-12-05T11:23:26;95368.88;;;8.02;87.37
3968;BME280;9221;42.646;23.380;2022-12-05T11:25:52;95331.31;;;7.77;86.92
3968;BME280;9221;42.646;23.380;2022-12-05T11:31:02;95350.72;;;8.10;86.30
3968;BME280;9221;42.646;23.380;2022-12-05T11:33:31;95345.13;;;8.04;85.47
3968;BME280;9221;42.646;23.380;2022-12-05T11:36:13;95369.66;;;8.27;85.96
3968;BME280;9221;42.646;23.380;2022-12-05T11:38:41;95340.22;;;7.99;85.91
3968;BME280;9221;42.646;23.380;2022-12-05T11:43:43;95370.81;;;8.11;86.38
3968;BME280;9221;42.646;23.380;2022-12-05T12:00:20;95343.22;;;7.70;88.26
3968;BME280;9221;42.646;23.380;2022-12-05T12:11:51;95328.13;;;7.50;89.37
3968;BME280;9221;42.646;23.380;2022-12-05T12:14:24;95347.59;;;7.58;89.42
3968;BME280;9221;42.646;23.380;2022-12-05T12:25:18;95325.59;;;7.72;88.61
3968;BME280;9221;42.646;23.380;2022-12-05T12:30:25;95322.88;;;7.50;89.66
3968;BME280;9221;42.646;23.380;2022-12-05T12:33:07;95305.81;;;7.20;90.25
3968;BME280;9221;42.646;23.380;2022-12-05T12:41:07;95311.16;;;7.42;90.34
3968;BME280;9221;42.646;23.380;2022-12-05T12:51:39;95317.84;;;7.47;90.77
3968;BME280;9221;42.646;23.380;2022-12-05T12:59:51;95292.41;;;7.11;91.52
3968;BME280;9221;42.646;23.380;2022-12-05T13:02:25;95329.41;;;7.20;91.65
3968;BME280;9221;42.646;23.380;2022-12-05T13:04:59;95290.69;;;7.23;91.35
3968;BME280;9221;42.646;23.380;2022-12-05T13:07:43;95264.31;;;7.14;91.59
3968;BME280;9221;42.646;23.380;2022-12-05T13:12:48;95292.97;;;7.28;92.05
3968;BME280;9221;42.646;23.380;2022-12-05T13:15:19;95274.31;;;7.20;91.64
3968;BME280;9221;42.646;23.380;2022-12-05T13:17:47;95346.88;;;7.32;91.84
3968;BME280;9221;42.646;23.380;2022-12-05T13:20:19;95221.72;;;6.86;91.29
3968;BME280;9221;42.646;23.380;2022-12-05T13:22:47;95282.63;;;7.38;90.74
3968;BME280;9221;42.646;23.380;2022-12-05T13:25:15;95346.59;;;7.48;91.18
3968;BME280;9221;42.646;23.380;2022-12-05T13:27:59;95300.56;;;7.20;91.15
3968;BME280;9221;42.646;23.380;2022-12-05T13:30:26;95257.31;;;6.77;92.14
3968;BME280;9221;42.646;23.380;2022-12-05T13:33:03;95267.41;;;6.70;92.96
3968;BME280;9221;42.646;23.380;2022-12-05T13:35:33;95314.63;;;7.19;92.76
3968;BME280;9221;42.646;23.380;2022-12-05T13:38:21;95337.78;;;7.25;92.95
3968;BME280;9221;42.646;23.380;2022-12-05T13:41:06;95303.97;;;7.33;92.28
3968;BME280;9221;42.646;23.380;2022-12-05T13:43:52;95407.50;;;7.40;92.08
3968;BME280;9221;42.646;23.380;2022-12-05T13:46:28;95293.44;;;7.22;91.54
3968;BME280;9221;42.646;23.380;2022-12-05T13:49:02;95321.66;;;7.42;91.97
3968;BME280;9221;42.646;23.380;2022-12-05T13:51:32;95311.09;;;7.55;91.52
3968;BME280;9221;42.646;23.380;2022-12-05T13:54:09;95270.56;;;7.35;91.10
3968;BME280;9221;42.646;23.380;2022-12-05T13:56:56;95307.91;;;7.63;90.93
3968;BME280;9221;42.646;23.380;2022-12-05T14:00:01;95309.56;;;7.64;90.51
3968;BME280;9221;42.646;23.380;2022-12-05T14:10:11;95321.81;;;7.52;90.83
3968;BME280;9221;42.646;23.380;2022-12-05T14:17:59;95283.59;;;7.37;91.12
3968;BME280;9221;42.646;23.380;2022-12-05T14:34:29;95319.06;;;7.54;91.01
3968;BME280;9221;42.646;23.380;2022-12-05T14:37:25;95274.63;;;7.39;90.41
3968;BME280;9221;42.646;23.380;2022-12-05T14:40:35;95260.69;;;7.39;90.29
3968;BME280;9221;42.646;23.380;2022-12-05T14:43:06;95314.97;;;7.74;90.26
3968;BME280;9221;42.646;23.380;2022-12-05T14:48:38;95317.84;;;7.82;90.64
3968;BME280;9221;42.646;23.380;2022-12-05T14:53:52;95275.16;;;7.56;90.04
3968;BME280;9221;42.646;23.380;2022-12-05T14:56:27;95219.22;;;7.08;90.41
3968;BME280;9221;42.646;23.380;2022-12-05T14:58:58;95366.16;;;7.68;90.44
3968;BME280;9221;42.646;23.380;2022-12-05T15:01:42;95346.53;;;7.61;90.29
3968;BME280;9221;42.646;23.380;2022-12-05T15:06:49;95279.69;;;7.42;90.68
3968;BME280;9221;42.646;23.380;2022-12-05T15:09:30;95322.72;;;7.64;90.97
3968;BME280;9221;42.646;23.380;2022-12-05T15:12:00;95306.22;;;7.62;91.07
3968;BME280;9221;42.646;23.380;2022-12-05T15:14:39;95319.75;;;7.44;91.05
3968;BME280;9221;42.646;23.380;2022-12-05T15:17:11;95250.75;;;7.31;90.76
3968;BME280;9221;42.646;23.380;2022-12-05T15:19:55;95319.75;;;7.44;91.03
3968;BME280;9221;42.646;23.380;2022-12-05T15:22:22;95354.25;;;7.75;91.39
3968;BME280;9221;42.646;23.380;2022-12-05T15:24:50;95320.81;;;7.77;91.07
3968;BME280;9221;42.646;23.380;2022-12-05T15:27:16;95303.84;;;7.70;91.10
3968;BME280;9221;42.646;23.380;2022-12-05T15:29:42;95276.84;;;7.57;90.83
3968;BME280;9221;42.646;23.380;2022-12-05T15:37:17;95297.63;;;7.60;91.53
3968;BME280;9221;42.646;23.380;2022-12-05T15:42:48;95307.66;;;7.66;91.88
3968;BME280;9221;42.646;23.380;2022-12-05T15:45:25;95326.31;;;7.74;91.36
3968;BME280;9221;42.646;23.380;2022-12-05T15:51:01;95314.13;;;7.73;91.85
3968;BME280;9221;42.646;23.380;2022-12-05T15:53:30;95342.28;;;7.71;92.19
3968;BME280;9221;42.646;23.380;2022-12-05T15:56:14;95344.78;;;7.73;92.39
3968;BME280;9221;42.646;23.380;2022-12-05T15:58:46;95299.53;;;7.58;91.80
3968;BME280;9221;42.646;23.380;2022-12-05T16:01:15;95310.03;;;7.58;92.68
3968;BME280;9221;42.646;23.380;2022-12-05T16:06:41;95314.59;;;7.67;93.07
3968;BME280;9221;42.646;23.380;2022-12-05T16:09:13;95269.19;;;7.42;92.90
3968;BME280;9221;42.646;23.380;2022-12-05T16:11:58;95361.84;;;7.67;92.99
3968;BME280;9221;42.646;23.380;2022-12-05T16:14:28;95354.41;;;7.61;93.39
3968;BME280;9221;42.646;23.380;2022-12-05T16:16:57;95276.44;;;7.39;93.47
3968;BME280;9221;42.646;23.380;2022-12-05T16:19:25;95353.91;;;7.56;93.59
3968;BME280;9221;42.646;23.380;2022-12-05T16:24:41;95320.00;;;7.53;94.51
3968;BME280;9221;42.646;23.380;2022-12-05T16:27:17;95281.75;;;7.26;94.03
3968;BME280;9221;42.646;23.380;2022-12-05T16:29:45;95344.31;;;7.43;94.54
3968;BME280;9221;42.646;23.380;2022-12-05T16:32:21;95327.22;;;7.62;94.21
3968;BME280;9221;42.646;23.380;2022-12-05T16:34:48;95347.00;;;7.55;94.23